Temp: 5.3°C   Baro: 1027.5mb
  Wind: 0.9mph   Dir: W (277°)
  Rain: 0.0mm (0.0mm/hr)
  Humidity: 88%

Historic data

Bath Spa Weather Station Historical Data
Daily Summary for December 02, 2022 Units:  Both    English   Metric
Daily Weekly Monthly Yearly Custom
  High: Low: Average:
Temperature: 41.5 °F /  5.3 °C 31.6 °F /  -0.2 °C 36.5 °F /  2.5 °C
Dew Point: 40.5 °F /  4.7 °C 30.9 °F /  -0.6 °C 35.4 °F /  1.9 °C
Humidity: 97% 91.8% 96%
Wind Speed: 6.1mph /  9.8km/h - 1.7mph /  2.7km/h
Wind Gust: 13mph /  20.9km/h - -
Wind- - East
Pressure: 30.39 in /  1029 hPa 30.29 in /  1025.6 hPa -
Precipitation: 0.00 in /  0 mm    
Historical Graphs
 
 
Tabular Data for December 02, 2022
Time Temperature Dew Point Pressure Wind Wind Speed Wind Gust Humidity Rainfall Rate (Hourly) solar
00:09 32.6 °F /  0.3 °C 31.9 °F /  -0.1 °C 30.39in /  1029hPa NE 2.2mph /  3.5km/h 4mph /  6.4km/h 97% 0.00in /  0mm 0 W/m2
00:14 32.5 °F /  0.3 °C 31.8 °F /  -0.1 °C 30.39in /  1029hPa NNE 2.8mph /  4.5km/h 4mph /  6.4km/h 97% 0.00in /  0mm 0 W/m2
00:19 32.4 °F /  0.2 °C 31.6 °F /  -0.2 °C 30.39in /  1029hPa NNE 2.1mph /  3.4km/h 5mph /  8km/h 97% 0.00in /  0mm 0 W/m2
00:24 32.2 °F /  0.1 °C 31.5 °F /  -0.3 °C 30.39in /  1029hPa NNE 1.7mph /  2.7km/h 4mph /  6.4km/h 97% 0.00in /  0mm 0 W/m2
00:29 32.2 °F /  0.1 °C 31.5 °F /  -0.3 °C 30.39in /  1029hPa NNE 1.5mph /  2.4km/h 3mph /  4.8km/h 97% 0.00in /  0mm 0 W/m2
00:34 32.2 °F /  0.1 °C 31.5 °F /  -0.3 °C 30.38in /  1028.7hPa NE 1.7mph /  2.7km/h 5mph /  8km/h 97% 0.00in /  0mm 0 W/m2
00:39 32.2 °F /  0.1 °C 31.5 °F /  -0.3 °C 30.38in /  1028.7hPa NE 2.1mph /  3.4km/h 5mph /  8km/h 97% 0.00in /  0mm 0 W/m2
00:44 32 °F /  0 °C 31.3 °F /  -0.4 °C 30.38in /  1028.7hPa NNE 2mph /  3.2km/h 6mph /  9.7km/h 97% 0.00in /  0mm 0 W/m2
00:49 31.9 °F /  -0.1 °C 31.2 °F /  -0.4 °C 30.38in /  1028.7hPa NE 1.5mph /  2.4km/h 4mph /  6.4km/h 97% 0.00in /  0mm 0 W/m2
00:54 32 °F /  0 °C 31.3 °F /  -0.4 °C 30.38in /  1028.7hPa ENE 1.6mph /  2.6km/h 4mph /  6.4km/h 97% 0.00in /  0mm 0 W/m2
00:59 32 °F /  0 °C 31.3 °F /  -0.4 °C 30.38in /  1028.7hPa ENE 2.1mph /  3.4km/h 4mph /  6.4km/h 97% 0.00in /  0mm 0 W/m2
01:04 32 °F /  0 °C 31.3 °F /  -0.4 °C 30.38in /  1028.7hPa ENE 2mph /  3.2km/h 4mph /  6.4km/h 97% 0.00in /  0mm 0 W/m2
01:09 32.2 °F /  0.1 °C 31.5 °F /  -0.3 °C 30.38in /  1028.7hPa NE 1.9mph /  3.1km/h 4mph /  6.4km/h 97% 0.00in /  0mm 0 W/m2
01:14 32 °F /  0 °C 31.3 °F /  -0.4 °C 30.38in /  1028.7hPa NE 0.5mph /  0.8km/h 4mph /  6.4km/h 97% 0.00in /  0mm 0 W/m2
01:19 31.9 °F /  -0.1 °C 31.2 °F /  -0.4 °C 30.38in /  1028.7hPa NE 1.8mph /  2.9km/h 4mph /  6.4km/h 97% 0.00in /  0mm 0 W/m2
01:24 31.8 °F /  -0.1 °C 31.1 °F /  -0.5 °C 30.38in /  1028.7hPa North 1.2mph /  1.9km/h 4mph /  6.4km/h 97% 0.00in /  0mm 0 W/m2
01:29 31.8 °F /  -0.1 °C 31.1 °F /  -0.5 °C 30.38in /  1028.7hPa North 0.4mph /  0.6km/h 2mph /  3.2km/h 97% 0.00in /  0mm 0 W/m2
01:34 32 °F /  0 °C 31.3 °F /  -0.4 °C 30.38in /  1028.7hPa North 0.2mph /  0.3km/h 3mph /  4.8km/h 97% 0.00in /  0mm 0 W/m2
01:39 31.9 °F /  -0.1 °C 31.2 °F /  -0.4 °C 30.38in /  1028.7hPa North 0.9mph /  1.4km/h 3mph /  4.8km/h 97% 0.00in /  0mm 0 W/m2
01:44 31.7 °F /  -0.2 °C 31 °F /  -0.6 °C 30.38in /  1028.7hPa North 0.7mph /  1.1km/h 3mph /  4.8km/h 97% 0.00in /  0mm 0 W/m2
01:49 31.8 °F /  -0.1 °C 31.1 °F /  -0.5 °C 30.38in /  1028.7hPa North 0.8mph /  1.3km/h 3mph /  4.8km/h 97% 0.00in /  0mm 0 W/m2
01:54 31.8 °F /  -0.1 °C 31.1 °F /  -0.5 °C 30.38in /  1028.7hPa North 0.8mph /  1.3km/h 2mph /  3.2km/h 97% 0.00in /  0mm 0 W/m2
01:59 31.8 °F /  -0.1 °C 31.1 °F /  -0.5 °C 30.38in /  1028.7hPa Calm   1mph /  1.6km/h 97% 0.00in /  0mm 0 W/m2
02:04 31.8 °F /  -0.1 °C 31.1 °F /  -0.5 °C 30.38in /  1028.7hPa North 0.4mph /  0.6km/h 2mph /  3.2km/h 97% 0.00in /  0mm 0 W/m2
02:09 31.7 °F /  -0.2 °C 31 °F /  -0.6 °C 30.37in /  1028.3hPa North 0.5mph /  0.8km/h 2mph /  3.2km/h 97% 0.00in /  0mm 0 W/m2
02:14 31.6 °F /  -0.2 °C 30.9 °F /  -0.6 °C 30.37in /  1028.3hPa North 0.2mph /  0.3km/h 1mph /  1.6km/h 97% 0.00in /  0mm 0 W/m2
02:19 31.7 °F /  -0.2 °C 31 °F /  -0.6 °C 30.37in /  1028.3hPa North 0.2mph /  0.3km/h 1mph /  1.6km/h 97% 0.00in /  0mm 0 W/m2
02:24 32 °F /  0 °C 31.3 °F /  -0.4 °C 30.37in /  1028.3hPa North 0.2mph /  0.3km/h 1mph /  1.6km/h 97% 0.00in /  0mm 0 W/m2
02:29 32.2 °F /  0.1 °C 31.5 °F /  -0.3 °C 30.37in /  1028.3hPa ENE 2mph /  3.2km/h 3mph /  4.8km/h 97% 0.00in /  0mm 0 W/m2
02:34 32.4 °F /  0.2 °C 31.6 °F /  -0.2 °C 30.37in /  1028.3hPa ENE 2.7mph /  4.3km/h 5mph /  8km/h 97% 0.00in /  0mm 0 W/m2
02:39 32.4 °F /  0.2 °C 31.6 °F /  -0.2 °C 30.37in /  1028.3hPa ENE 2mph /  3.2km/h 3mph /  4.8km/h 97% 0.00in /  0mm 0 W/m2
02:44 32.5 °F /  0.3 °C 31.8 °F /  -0.1 °C 30.37in /  1028.3hPa ENE 1.3mph /  2.1km/h 3mph /  4.8km/h 97% 0.00in /  0mm 0 W/m2
02:49 32.5 °F /  0.3 °C 31.8 °F /  -0.1 °C 30.37in /  1028.3hPa ENE 0.2mph /  0.3km/h 2mph /  3.2km/h 97% 0.00in /  0mm 0 W/m2
02:54 32.6 °F /  0.3 °C 31.9 °F /  -0.1 °C 30.37in /  1028.3hPa ENE 1.3mph /  2.1km/h 3mph /  4.8km/h 97% 0.00in /  0mm 0 W/m2
02:59 32.7 °F /  0.4 °C 32 °F /  0 °C 30.37in /  1028.3hPa ENE 2.7mph /  4.3km/h 5mph /  8km/h 97% 0.00in /  0mm 0 W/m2
03:04 32.6 °F /  0.3 °C 31.9 °F /  -0.1 °C 30.36in /  1028hPa ESE 2.1mph /  3.4km/h 5mph /  8km/h 97% 0.00in /  0mm 0 W/m2
03:09 32.5 °F /  0.3 °C 31.8 °F /  -0.1 °C 30.36in /  1028hPa ESE 1.6mph /  2.6km/h 5mph /  8km/h 97% 0.00in /  0mm 0 W/m2
03:14 32.5 °F /  0.3 °C 31.8 °F /  -0.1 °C 30.36in /  1028hPa ESE 1.3mph /  2.1km/h 4mph /  6.4km/h 97% 0.00in /  0mm 0 W/m2
03:19 32.5 °F /  0.3 °C 31.8 °F /  -0.1 °C 30.36in /  1028hPa ESE 0.8mph /  1.3km/h 2mph /  3.2km/h 97% 0.00in /  0mm 0 W/m2
03:24 32.6 °F /  0.3 °C 31.9 °F /  -0.1 °C 30.36in /  1028hPa ESE 1.2mph /  1.9km/h 3mph /  4.8km/h 97% 0.00in /  0mm 0 W/m2
03:29 32.7 °F /  0.4 °C 32 °F /  0 °C 30.36in /  1028hPa ESE 1.7mph /  2.7km/h 4mph /  6.4km/h 97% 0.00in /  0mm 0 W/m2
03:34 32.7 °F /  0.4 °C 32 °F /  0 °C 30.36in /  1028hPa ESE 0.9mph /  1.4km/h 3mph /  4.8km/h 97% 0.00in /  0mm 0 W/m2
03:39 32.7 °F /  0.4 °C 32 °F /  0 °C 30.35in /  1027.7hPa ESE 0.7mph /  1.1km/h 3mph /  4.8km/h 97% 0.00in /  0mm 0 W/m2
03:44 32.6 °F /  0.3 °C 31.9 °F /  -0.1 °C 30.35in /  1027.7hPa ESE 1.2mph /  1.9km/h 2mph /  3.2km/h 97% 0.00in /  0mm 0 W/m2
03:49 32.5 °F /  0.3 °C 31.8 °F /  -0.1 °C 30.35in /  1027.7hPa ESE 0.2mph /  0.3km/h 2mph /  3.2km/h 97% 0.00in /  0mm 0 W/m2
03:53 32.5 °F /  0.3 °C 31.8 °F /  -0.1 °C 30.35in /  1027.7hPa ESE 0.5mph /  0.8km/h 2mph /  3.2km/h 97% 0.00in /  0mm 0 W/m2
03:59 32.5 °F /  0.3 °C 31.8 °F /  -0.1 °C 30.35in /  1027.7hPa ESE 1.1mph /  1.8km/h 3mph /  4.8km/h 97% 0.00in /  0mm 0 W/m2
04:04 32.4 °F /  0.2 °C 31.6 °F /  -0.2 °C 30.35in /  1027.7hPa ESE 1.2mph /  1.9km/h 2mph /  3.2km/h 97% 0.00in /  0mm 0 W/m2
04:09 32.4 °F /  0.2 °C 31.6 °F /  -0.2 °C 30.35in /  1027.7hPa ESE 0.9mph /  1.4km/h 2mph /  3.2km/h 97% 0.00in /  0mm 0 W/m2
04:14 32.4 °F /  0.2 °C 31.6 °F /  -0.2 °C 30.35in /  1027.7hPa ESE 0.4mph /  0.6km/h 2mph /  3.2km/h 97% 0.00in /  0mm 0 W/m2
04:19 32.4 °F /  0.2 °C 31.6 °F /  -0.2 °C 30.35in /  1027.7hPa ESE 0.4mph /  0.6km/h 4mph /  6.4km/h 97% 0.00in /  0mm 0 W/m2
04:24 32.4 °F /  0.2 °C 31.6 °F /  -0.2 °C 30.35in /  1027.7hPa ESE 1.1mph /  1.8km/h 4mph /  6.4km/h 97% 0.00in /  0mm 0 W/m2
04:29 32.3 °F /  0.2 °C 31.5 °F /  -0.3 °C 30.35in /  1027.7hPa ESE 1mph /  1.6km/h 4mph /  6.4km/h 97% 0.00in /  0mm 0 W/m2
04:34 32.4 °F /  0.2 °C 31.6 °F /  -0.2 °C 30.35in /  1027.7hPa ENE 1.9mph /  3.1km/h 6mph /  9.7km/h 97% 0.00in /  0mm 0 W/m2
04:39 32.4 °F /  0.2 °C 31.6 °F /  -0.2 °C 30.35in /  1027.7hPa NE 3.8mph /  6.1km/h 5mph /  8km/h 97% 0.00in /  0mm 0 W/m2
04:44 32.2 °F /  0.1 °C 31.5 °F /  -0.3 °C 30.35in /  1027.7hPa NE 1.8mph /  2.9km/h 4mph /  6.4km/h 97% 0.00in /  0mm 0 W/m2
04:49 32.2 °F /  0.1 °C 31.5 °F /  -0.3 °C 30.35in /  1027.7hPa NE 1.7mph /  2.7km/h 4mph /  6.4km/h 97% 0.00in /  0mm 0 W/m2
04:54 32.2 °F /  0.1 °C 31.5 °F /  -0.3 °C 30.35in /  1027.7hPa NE 1.6mph /  2.6km/h 4mph /  6.4km/h 97% 0.00in /  0mm 0 W/m2
04:59 32.2 °F /  0.1 °C 31.5 °F /  -0.3 °C 30.35in /  1027.7hPa NE 0.9mph /  1.4km/h 3mph /  4.8km/h 97% 0.00in /  0mm 0 W/m2
05:04 32.2 °F /  0.1 °C 31.5 °F /  -0.3 °C 30.35in /  1027.7hPa East 1.5mph /  2.4km/h 5mph /  8km/h 97% 0.00in /  0mm 0 W/m2
05:09 31.8 °F /  -0.1 °C 31.1 °F /  -0.5 °C 30.35in /  1027.7hPa ESE 1.6mph /  2.6km/h 5mph /  8km/h 97% 0.00in /  0mm 0 W/m2
05:14 31.6 °F /  -0.2 °C 30.9 °F /  -0.6 °C 30.35in /  1027.7hPa SE 0.4mph /  0.6km/h 3mph /  4.8km/h 97% 0.00in /  0mm 0 W/m2
05:19 31.6 °F /  -0.2 °C 30.9 °F /  -0.6 °C 30.34in /  1027.3hPa SE 0.4mph /  0.6km/h 2mph /  3.2km/h 97% 0.00in /  0mm 0 W/m2
05:24 31.8 °F /  -0.1 °C 31.1 °F /  -0.5 °C 30.34in /  1027.3hPa SE 1.1mph /  1.8km/h 3mph /  4.8km/h 97% 0.00in /  0mm 0 W/m2
05:29 31.8 °F /  -0.1 °C 31.1 °F /  -0.5 °C 30.34in /  1027.3hPa SE 0.4mph /  0.6km/h 3mph /  4.8km/h 97% 0.00in /  0mm 0 W/m2
05:34 32 °F /  0 °C 31.3 °F /  -0.4 °C 30.34in /  1027.3hPa SE 0.5mph /  0.8km/h 2mph /  3.2km/h 97% 0.00in /  0mm 0 W/m2
05:38 32 °F /  0 °C 31.3 °F /  -0.4 °C 30.34in /  1027.3hPa SE 0.7mph /  1.1km/h 3mph /  4.8km/h 97% 0.00in /  0mm 0 W/m2
05:44 32.1 °F /  0.1 °C 31.4 °F /  -0.3 °C 30.34in /  1027.3hPa SE 1.3mph /  2.1km/h 4mph /  6.4km/h 97% 0.00in /  0mm 0 W/m2
05:49 32.2 °F /  0.1 °C 31.5 °F /  -0.3 °C 30.34in /  1027.3hPa SE 1.6mph /  2.6km/h 3mph /  4.8km/h 97% 0.00in /  0mm 0 W/m2
05:54 32.1 °F /  0.1 °C 31.4 °F /  -0.3 °C 30.34in /  1027.3hPa SE 0.5mph /  0.8km/h 3mph /  4.8km/h 97% 0.00in /  0mm 0 W/m2
05:59 32.1 °F /  0.1 °C 31.4 °F /  -0.3 °C 30.34in /  1027.3hPa SE 0.2mph /  0.3km/h 1mph /  1.6km/h 97% 0.00in /  0mm 0 W/m2
06:04 32 °F /  0 °C 31.3 °F /  -0.4 °C 30.34in /  1027.3hPa SE 0.5mph /  0.8km/h 2mph /  3.2km/h 97% 0.00in /  0mm 0 W/m2
06:09 31.9 °F /  -0.1 °C 31.2 °F /  -0.4 °C 30.34in /  1027.3hPa SE 1.1mph /  1.8km/h 2mph /  3.2km/h 97% 0.00in /  0mm 0 W/m2
06:14 31.8 °F /  -0.1 °C 31.1 °F /  -0.5 °C 30.34in /  1027.3hPa SE 0.8mph /  1.3km/h 3mph /  4.8km/h 97% 0.00in /  0mm 0 W/m2
06:19 31.8 °F /  -0.1 °C 31.1 °F /  -0.5 °C 30.34in /  1027.3hPa SE 1.1mph /  1.8km/h 3mph /  4.8km/h 97% 0.00in /  0mm 0 W/m2
06:24 31.8 °F /  -0.1 °C 31.1 °F /  -0.5 °C 30.33in /  1027hPa SE 1.1mph /  1.8km/h 3mph /  4.8km/h 97% 0.00in /  0mm 0 W/m2
06:29 31.9 °F /  -0.1 °C 31.2 °F /  -0.4 °C 30.33in /  1027hPa SE 1.2mph /  1.9km/h 2mph /  3.2km/h 97% 0.00in /  0mm 0 W/m2
06:34 32 °F /  0 °C 31.3 °F /  -0.4 °C 30.34in /  1027.3hPa SE 1.1mph /  1.8km/h 2mph /  3.2km/h 97% 0.00in /  0mm 0 W/m2
06:39 32.1 °F /  0.1 °C 31.4 °F /  -0.3 °C 30.33in /  1027hPa ESE 1.8mph /  2.9km/h 4mph /  6.4km/h 97% 0.00in /  0mm 0 W/m2
06:44 32.2 °F /  0.1 °C 31.5 °F /  -0.3 °C 30.33in /  1027hPa ESE 1.3mph /  2.1km/h 4mph /  6.4km/h 97% 0.00in /  0mm 0 W/m2
06:49 32.2 °F /  0.1 °C 31.5 °F /  -0.3 °C 30.33in /  1027hPa ESE 0.4mph /  0.6km/h 3mph /  4.8km/h 97% 0.00in /  0mm 0 W/m2
06:54 32.5 °F /  0.3 °C 31.8 °F /  -0.1 °C 30.33in /  1027hPa ESE 0.4mph /  0.6km/h 2mph /  3.2km/h 97% 0.00in /  0mm 0 W/m2
06:59 34.7 °F /  1.5 °C 34 °F /  1.1 °C 30.33in /  1027hPa ESE 0.4mph /  0.6km/h 1mph /  1.6km/h 97% 0.00in /  0mm 0 W/m2
07:04 36.7 °F /  2.6 °C 36 °F /  2.2 °C 30.34in /  1027.3hPa ESE 1.4mph /  2.3km/h 4mph /  6.4km/h 97% 0.00in /  0mm 0 W/m2
07:09 37.1 °F /  2.8 °C 36.4 °F /  2.4 °C 30.34in /  1027.3hPa ESE 0.5mph /  0.8km/h 4mph /  6.4km/h 97% 0.00in /  0mm 0 W/m2
07:14 37.1 °F /  2.8 °C 36.4 °F /  2.4 °C 30.34in /  1027.3hPa ESE 1.6mph /  2.6km/h 4mph /  6.4km/h 97% 0.00in /  0mm 0 W/m2
07:19 35.1 °F /  1.7 °C 34.4 °F /  1.3 °C 30.34in /  1027.3hPa ESE 0.5mph /  0.8km/h 2mph /  3.2km/h 97% 0.00in /  0mm 0 W/m2
07:24 34.1 °F /  1.2 °C 33.3 °F /  0.7 °C 30.34in /  1027.3hPa ESE 1.1mph /  1.8km/h 2mph /  3.2km/h 97% 0.00in /  0mm 0 W/m2
07:29 33.5 °F /  0.8 °C 32.8 °F /  0.4 °C 30.34in /  1027.3hPa ESE 1.1mph /  1.8km/h 2mph /  3.2km/h 97% 0.00in /  0mm 0 W/m2
07:34 33.1 °F /  0.6 °C 32.3 °F /  0.2 °C 30.34in /  1027.3hPa ESE 1.6mph /  2.6km/h 3mph /  4.8km/h 97% 0.00in /  0mm 0 W/m2
07:39 32.7 °F /  0.4 °C 32 °F /  0 °C 30.34in /  1027.3hPa ESE 1.1mph /  1.8km/h 3mph /  4.8km/h 97% 0.00in /  0mm 0 W/m2
07:44 32.5 °F /  0.3 °C 31.8 °F /  -0.1 °C 30.34in /  1027.3hPa ESE 0.2mph /  0.3km/h 2mph /  3.2km/h 97% 0.00in /  0mm 0 W/m2
07:49 32.5 °F /  0.3 °C 31.8 °F /  -0.1 °C 30.34in /  1027.3hPa ESE 0.4mph /  0.6km/h 2mph /  3.2km/h 97% 0.00in /  0mm 0 W/m2
07:54 32.4 °F /  0.2 °C 31.7 °F /  -0.2 °C 30.34in /  1027.3hPa ESE 1.4mph /  2.3km/h 3mph /  4.8km/h 97% 0.00in /  0mm 0 W/m2
07:59 32.4 °F /  0.2 °C 31.6 °F /  -0.2 °C 30.34in /  1027.3hPa ESE 1.7mph /  2.7km/h 3mph /  4.8km/h 97% 0.00in /  0mm 0 W/m2
08:04 32.4 °F /  0.2 °C 31.6 °F /  -0.2 °C 30.34in /  1027.3hPa ESE 0.9mph /  1.4km/h 3mph /  4.8km/h 97% 0.00in /  0mm 0 W/m2
08:09 32.4 °F /  0.2 °C 31.6 °F /  -0.2 °C 30.34in /  1027.3hPa ESE 1.8mph /  2.9km/h 3mph /  4.8km/h 97% 0.00in /  0mm 5 W/m2
08:14 32.4 °F /  0.2 °C 31.6 °F /  -0.2 °C 30.34in /  1027.3hPa ESE 1.6mph /  2.6km/h 3mph /  4.8km/h 97% 0.00in /  0mm 5 W/m2
08:19 32.3 °F /  0.2 °C 31.6 °F /  -0.2 °C 30.34in /  1027.3hPa ESE 0.8mph /  1.3km/h 3mph /  4.8km/h 97% 0.00in /  0mm 7 W/m2
08:24 32.2 °F /  0.1 °C 31.5 °F /  -0.3 °C 30.34in /  1027.3hPa ESE 0.2mph /  0.3km/h 2mph /  3.2km/h 97% 0.00in /  0mm 9 W/m2
08:29 32.2 °F /  0.1 °C 31.5 °F /  -0.3 °C 30.35in /  1027.7hPa East 1mph /  1.6km/h 4mph /  6.4km/h 97% 0.00in /  0mm 12 W/m2
08:34 32.2 °F /  0.1 °C 31.5 °F /  -0.3 °C 30.35in /  1027.7hPa East 0.8mph /  1.3km/h 2mph /  3.2km/h 97% 0.00in /  0mm 14 W/m2
08:39 32.2 °F /  0.1 °C 31.5 °F /  -0.3 °C 30.35in /  1027.7hPa East 0.5mph /  0.8km/h 1mph /  1.6km/h 97% 0.00in /  0mm 19 W/m2
08:44 32.4 °F /  0.2 °C 31.6 °F /  -0.2 °C 30.35in /  1027.7hPa East 1.6mph /  2.6km/h 3mph /  4.8km/h 97% 0.00in /  0mm 19 W/m2
08:49 32.4 °F /  0.2 °C 31.6 °F /  -0.2 °C 30.35in /  1027.7hPa East 1.2mph /  1.9km/h 3mph /  4.8km/h 97% 0.00in /  0mm 18 W/m2
08:54 32.4 °F /  0.2 °C 31.6 °F /  -0.2 °C 30.35in /  1027.7hPa East 0.7mph /  1.1km/h 2mph /  3.2km/h 97% 0.00in /  0mm 18 W/m2
08:59 32.4 °F /  0.2 °C 31.6 °F /  -0.2 °C 30.35in /  1027.7hPa Calm   1mph /  1.6km/h 97% 0.00in /  0mm 25 W/m2
09:04 32.5 °F /  0.3 °C 31.8 °F /  -0.1 °C 30.34in /  1027.3hPa East 0.5mph /  0.8km/h 2mph /  3.2km/h 97% 0.00in /  0mm 28 W/m2
09:09 32.5 °F /  0.3 °C 31.8 °F /  -0.1 °C 30.34in /  1027.3hPa East 0.2mph /  0.3km/h 1mph /  1.6km/h 97% 0.00in /  0mm 30 W/m2
09:14 32.7 °F /  0.4 °C 32 °F /  0 °C 30.34in /  1027.3hPa Calm   1mph /  1.6km/h 97% 0.00in /  0mm 33 W/m2
09:19 32.7 °F /  0.4 °C 32 °F /  0 °C 30.35in /  1027.7hPa Calm   2mph /  3.2km/h 97% 0.00in /  0mm 33 W/m2
09:24 32.5 °F /  0.3 °C 31.7 °F /  -0.2 °C 30.35in /  1027.7hPa East 0.2mph /  0.3km/h 2mph /  3.2km/h 97% 0.00in /  0mm 32 W/m2
09:29 32.4 °F /  0.2 °C 31.6 °F /  -0.2 °C 30.35in /  1027.7hPa East 0.4mph /  0.6km/h 1mph /  1.6km/h 97% 0.00in /  0mm 37 W/m2
09:34 32.5 °F /  0.3 °C 31.8 °F /  -0.1 °C 30.35in /  1027.7hPa East 0.2mph /  0.3km/h 1mph /  1.6km/h 97% 0.00in /  0mm 42 W/m2
09:39 32.9 °F /  0.5 °C 32.2 °F /  0.1 °C 30.35in /  1027.7hPa East 0.2mph /  0.3km/h 1mph /  1.6km/h 97% 0.00in /  0mm 44 W/m2
09:44 33.2 °F /  0.7 °C 32.5 °F /  0.3 °C 30.35in /  1027.7hPa Calm     97% 0.00in /  0mm 49 W/m2
09:49 33.3 °F /  0.7 °C 32.5 °F /  0.3 °C 30.35in /  1027.7hPa Calm     97% 0.00in /  0mm 49 W/m2
09:54 33.1 °F /  0.6 °C 32.4 °F /  0.2 °C 30.35in /  1027.7hPa Calm     97% 0.00in /  0mm 47 W/m2
09:59 33.3 °F /  0.7 °C 32.5 °F /  0.3 °C 30.35in /  1027.7hPa Calm     97% 0.00in /  0mm 51 W/m2
10:04 33.2 °F /  0.7 °C 32.4 °F /  0.2 °C 30.35in /  1027.7hPa East 0.8mph /  1.3km/h 3mph /  4.8km/h 97% 0.00in /  0mm 62 W/m2
10:09 33.3 °F /  0.7 °C 32.6 °F /  0.3 °C 30.35in /  1027.7hPa East 0.7mph /  1.1km/h 2mph /  3.2km/h 97% 0.00in /  0mm 63 W/m2
10:14 33.4 °F /  0.8 °C 32.7 °F /  0.4 °C 30.35in /  1027.7hPa East 0.9mph /  1.4km/h 3mph /  4.8km/h 97% 0.00in /  0mm 65 W/m2
10:19 33.4 °F /  0.8 °C 32.7 °F /  0.4 °C 30.35in /  1027.7hPa East 1.1mph /  1.8km/h 3mph /  4.8km/h 97% 0.00in /  0mm 63 W/m2
10:24 33.3 °F /  0.7 °C 32.5 °F /  0.3 °C 30.35in /  1027.7hPa East 0.2mph /  0.3km/h 2mph /  3.2km/h 97% 0.00in /  0mm 56 W/m2
10:29 33.3 °F /  0.7 °C 32.5 °F /  0.3 °C 30.35in /  1027.7hPa East 0.2mph /  0.3km/h 1mph /  1.6km/h 97% 0.00in /  0mm 65 W/m2
10:34 33.3 °F /  0.7 °C 32.6 °F /  0.3 °C 30.35in /  1027.7hPa East 0.5mph /  0.8km/h 2mph /  3.2km/h 97% 0.00in /  0mm 83 W/m2
10:39 33.4 °F /  0.8 °C 32.7 °F /  0.4 °C 30.35in /  1027.7hPa East 0.2mph /  0.3km/h 2mph /  3.2km/h 97% 0.00in /  0mm 83 W/m2
10:44 33.6 °F /  0.9 °C 32.9 °F /  0.5 °C 30.35in /  1027.7hPa East 0.2mph /  0.3km/h 1mph /  1.6km/h 97% 0.00in /  0mm 88 W/m2
10:49 33.8 °F /  1 °C 33.1 °F /  0.6 °C 30.34in /  1027.3hPa East 0.9mph /  1.4km/h 2mph /  3.2km/h 97% 0.00in /  0mm 86 W/m2
10:54 33.9 °F /  1.1 °C 33.2 °F /  0.7 °C 30.34in /  1027.3hPa East 0.8mph /  1.3km/h 2mph /  3.2km/h 97% 0.00in /  0mm 95 W/m2
10:59 34 °F /  1.1 °C 33.3 °F /  0.7 °C 30.34in /  1027.3hPa East 0.4mph /  0.6km/h 2mph /  3.2km/h 97% 0.00in /  0mm 109 W/m2
11:04 34 °F /  1.1 °C 33.3 °F /  0.7 °C 30.34in /  1027.3hPa East 0.4mph /  0.6km/h 2mph /  3.2km/h 97% 0.00in /  0mm 109 W/m2
11:09 34.3 °F /  1.3 °C 33.5 °F /  0.8 °C 30.34in /  1027.3hPa East 1.6mph /  2.6km/h 3mph /  4.8km/h 97% 0.00in /  0mm 118 W/m2
11:14 34.5 °F /  1.4 °C 33.8 °F /  1 °C 30.34in /  1027.3hPa East 1.9mph /  3.1km/h 3mph /  4.8km/h 97% 0.00in /  0mm 120 W/m2
11:19 34.8 °F /  1.6 °C 34.1 °F /  1.2 °C 30.34in /  1027.3hPa East 1.7mph /  2.7km/h 5mph /  8km/h 97% 0.00in /  0mm 120 W/m2
11:24 35 °F /  1.7 °C 34.3 °F /  1.3 °C 30.34in /  1027.3hPa East 1.3mph /  2.1km/h 5mph /  8km/h 97% 0.00in /  0mm 123 W/m2
11:29 35.1 °F /  1.7 °C 34.3 °F /  1.3 °C 30.34in /  1027.3hPa East 2.2mph /  3.5km/h 4mph /  6.4km/h 97% 0.00in /  0mm 120 W/m2
11:33 35.3 °F /  1.8 °C 34.6 °F /  1.4 °C 30.34in /  1027.3hPa ESE 1.5mph /  2.4km/h 3mph /  4.8km/h 97% 0.00in /  0mm 118 W/m2
11:39 35.5 °F /  1.9 °C 34.8 °F /  1.6 °C 30.34in /  1027.3hPa ESE 0.4mph /  0.6km/h 2mph /  3.2km/h 97% 0.00in /  0mm 111 W/m2
11:44 35.6 °F /  2 °C 34.9 °F /  1.6 °C 30.34in /  1027.3hPa ESE 1.2mph /  1.9km/h 4mph /  6.4km/h 97% 0.00in /  0mm 113 W/m2
11:49 35.3 °F /  1.8 °C 34.6 °F /  1.4 °C 30.34in /  1027.3hPa ESE 1.3mph /  2.1km/h 4mph /  6.4km/h 97% 0.00in /  0mm 109 W/m2
11:54 35.2 °F /  1.8 °C 34.5 °F /  1.4 °C 30.34in /  1027.3hPa ESE 0.4mph /  0.6km/h 3mph /  4.8km/h 97% 0.00in /  0mm 104 W/m2
11:59 35.4 °F /  1.9 °C 34.7 °F /  1.5 °C 30.33in /  1027hPa ESE 1.8mph /  2.9km/h 3mph /  4.8km/h 97% 0.00in /  0mm 105 W/m2
12:04 35.4 °F /  1.9 °C 34.7 °F /  1.5 °C 30.33in /  1027hPa ESE 1.6mph /  2.6km/h 3mph /  4.8km/h 97% 0.00in /  0mm 105 W/m2
12:09 35.5 °F /  1.9 °C 34.8 °F /  1.6 °C 30.33in /  1027hPa ESE 0.7mph /  1.1km/h 2mph /  3.2km/h 97% 0.00in /  0mm 97 W/m2
12:14 35.8 °F /  2.1 °C 35.1 °F /  1.7 °C 30.33in /  1027hPa ESE 0.5mph /  0.8km/h 2mph /  3.2km/h 97% 0.00in /  0mm 100 W/m2
12:19 36 °F /  2.2 °C 35.2 °F /  1.8 °C 30.33in /  1027hPa ESE 0.2mph /  0.3km/h 2mph /  3.2km/h 97% 0.00in /  0mm 100 W/m2
12:24 36 °F /  2.2 °C 35.2 °F /  1.8 °C 30.32in /  1026.6hPa ESE 0.5mph /  0.8km/h 2mph /  3.2km/h 97% 0.00in /  0mm 88 W/m2
12:29 36.1 °F /  2.3 °C 35.4 °F /  1.9 °C 30.32in /  1026.6hPa ESE 1.2mph /  1.9km/h 2mph /  3.2km/h 97% 0.00in /  0mm 97 W/m2
12:34 36.2 °F /  2.3 °C 35.5 °F /  1.9 °C 30.32in /  1026.6hPa ESE 0.2mph /  0.3km/h 2mph /  3.2km/h 97% 0.00in /  0mm 116 W/m2
12:39 36.6 °F /  2.6 °C 35.9 °F /  2.2 °C 30.32in /  1026.6hPa ESE 1.1mph /  1.8km/h 2mph /  3.2km/h 97% 0.00in /  0mm 118 W/m2
12:44 36.7 °F /  2.6 °C 36 °F /  2.2 °C 30.32in /  1026.6hPa ESE 0.7mph /  1.1km/h 2mph /  3.2km/h 97% 0.00in /  0mm 123 W/m2
12:49 36.9 °F /  2.7 °C 36.1 °F /  2.3 °C 30.32in /  1026.6hPa ESE 1.4mph /  2.3km/h 3mph /  4.8km/h 97% 0.00in /  0mm 123 W/m2
12:54 37.1 °F /  2.8 °C 36.4 °F /  2.4 °C 30.32in /  1026.6hPa ESE 0.4mph /  0.6km/h 2mph /  3.2km/h 97% 0.00in /  0mm 95 W/m2
12:59 37.3 °F /  2.9 °C 36.6 °F /  2.6 °C 30.32in /  1026.6hPa ESE 0.4mph /  0.6km/h 2mph /  3.2km/h 97% 0.00in /  0mm 74 W/m2
13:04 37.6 °F /  3.1 °C 36.9 °F /  2.7 °C 30.32in /  1026.6hPa Calm     97% 0.00in /  0mm 77 W/m2
13:09 37.8 °F /  3.2 °C 37 °F /  2.8 °C 30.31in /  1026.3hPa ESE 0.2mph /  0.3km/h 2mph /  3.2km/h 97% 0.00in /  0mm 144 W/m2
13:14 37.9 °F /  3.3 °C 37.2 °F /  2.9 °C 30.31in /  1026.3hPa Calm   1mph /  1.6km/h 97% 0.00in /  0mm 199 W/m2
13:19 38.1 °F /  3.4 °C 37.4 °F /  3 °C 30.31in /  1026.3hPa ESE 0.4mph /  0.6km/h 1mph /  1.6km/h 97% 0.00in /  0mm 148 W/m2
13:24 38.5 °F /  3.6 °C 37.8 °F /  3.2 °C 30.31in /  1026.3hPa ESE 0.7mph /  1.1km/h 3mph /  4.8km/h 97% 0.00in /  0mm 120 W/m2
13:29 38.5 °F /  3.6 °C 37.8 °F /  3.2 °C 30.31in /  1026.3hPa ESE 1.2mph /  1.9km/h 4mph /  6.4km/h 97% 0.00in /  0mm 84 W/m2
13:34 38.9 °F /  3.8 °C 38.1 °F /  3.4 °C 30.31in /  1026.3hPa ESE 0.8mph /  1.3km/h 3mph /  4.8km/h 97% 0.00in /  0mm 76 W/m2
13:39 39.3 °F /  4.1 °C 38.6 °F /  3.7 °C 30.31in /  1026.3hPa ESE 2.2mph /  3.5km/h 4mph /  6.4km/h 97% 0.00in /  0mm 88 W/m2
13:44 39.4 °F /  4.1 °C 38.7 °F /  3.7 °C 30.31in /  1026.3hPa ESE 1.6mph /  2.6km/h 4mph /  6.4km/h 97% 0.00in /  0mm 114 W/m2
13:49 39.6 °F /  4.2 °C 38.9 °F /  3.8 °C 30.31in /  1026.3hPa ENE 2.4mph /  3.9km/h 7mph /  11.3km/h 97% 0.00in /  0mm 90 W/m2
13:54 39.7 °F /  4.3 °C 39 °F /  3.9 °C 30.30in /  1026hPa NE 1.4mph /  2.3km/h 7mph /  11.3km/h 97% 0.00in /  0mm 95 W/m2
13:59 39.9 °F /  4.4 °C 39.2 °F /  4 °C 30.30in /  1026hPa NE 1.3mph /  2.1km/h 3mph /  4.8km/h 97% 0.00in /  0mm 86 W/m2
14:04 40.1 °F /  4.5 °C 39.4 °F /  4.1 °C 30.30in /  1026hPa NE 0.7mph /  1.1km/h 3mph /  4.8km/h 97% 0.00in /  0mm 81 W/m2
14:09 40.1 °F /  4.5 °C 39.4 °F /  4.1 °C 30.30in /  1026hPa NNE 2.3mph /  3.7km/h 5mph /  8km/h 97% 0.00in /  0mm 79 W/m2
14:14 40.1 °F /  4.5 °C 39.4 °F /  4.1 °C 30.30in /  1026hPa North 1.2mph /  1.9km/h 5mph /  8km/h 97% 0.00in /  0mm 65 W/m2
14:19 40.2 °F /  4.6 °C 39.5 °F /  4.2 °C 30.30in /  1026hPa North 1mph /  1.6km/h 3mph /  4.8km/h 97% 0.00in /  0mm 56 W/m2
14:24 40.3 °F /  4.6 °C 39.6 °F /  4.2 °C 30.30in /  1026hPa North 1.2mph /  1.9km/h 3mph /  4.8km/h 97% 0.00in /  0mm 44 W/m2
14:29 40.3 °F /  4.6 °C 39.6 °F /  4.2 °C 30.30in /  1026hPa NNE 2.3mph /  3.7km/h 6mph /  9.7km/h 97% 0.00in /  0mm 65 W/m2
14:34 40.3 °F /  4.6 °C 39.6 °F /  4.2 °C 30.30in /  1026hPa ENE 3.6mph /  5.8km/h 8mph /  12.9km/h 97% 0.00in /  0mm 49 W/m2
14:39 40.3 °F /  4.6 °C 39.6 °F /  4.2 °C 30.30in /  1026hPa NE 4.3mph /  6.9km/h 10mph /  16.1km/h 97% 0.00in /  0mm 33 W/m2
14:44 40.3 °F /  4.6 °C 39.6 °F /  4.2 °C 30.30in /  1026hPa NE 4mph /  6.4km/h 9mph /  14.5km/h 97% 0.00in /  0mm 40 W/m2
14:48 40.5 °F /  4.7 °C 39.7 °F /  4.3 °C 30.30in /  1026hPa NNE 2.7mph /  4.3km/h 8mph /  12.9km/h 97% 0.00in /  0mm 46 W/m2
14:54 40.5 °F /  4.7 °C 39.7 °F /  4.3 °C 30.30in /  1026hPa NNE 2.2mph /  3.5km/h 6mph /  9.7km/h 97% 0.00in /  0mm 42 W/m2
14:59 40.5 °F /  4.7 °C 39.8 °F /  4.3 °C 30.30in /  1026hPa NNE 2.9mph /  4.7km/h 5mph /  8km/h 97% 0.00in /  0mm 44 W/m2
15:04 40.6 °F /  4.8 °C 39.9 °F /  4.4 °C 30.30in /  1026hPa NE 2mph /  3.2km/h 5mph /  8km/h 97% 0.00in /  0mm 39 W/m2
15:09 40.7 °F /  4.8 °C 40 °F /  4.4 °C 30.30in /  1026hPa NE 1.7mph /  2.7km/h 3mph /  4.8km/h 97% 0.00in /  0mm 42 W/m2
15:14 40.8 °F /  4.9 °C 40.1 °F /  4.5 °C 30.30in /  1026hPa NE 0.5mph /  0.8km/h 3mph /  4.8km/h 97% 0.00in /  0mm 32 W/m2
15:19 40.8 °F /  4.9 °C 40.1 °F /  4.5 °C 30.30in /  1026hPa NE 0.2mph /  0.3km/h 3mph /  4.8km/h 97% 0.00in /  0mm 30 W/m2
15:24 40.8 °F /  4.9 °C 40.1 °F /  4.5 °C 30.30in /  1026hPa NE 0.5mph /  0.8km/h 2mph /  3.2km/h 97% 0.00in /  0mm 16 W/m2
15:29 40.9 °F /  4.9 °C 40.2 °F /  4.6 °C 30.30in /  1026hPa NE 1.3mph /  2.1km/h 4mph /  6.4km/h 97% 0.00in /  0mm 11 W/m2
15:34 41 °F /  5 °C 40.3 °F /  4.6 °C 30.30in /  1026hPa NE 1.3mph /  2.1km/h 4mph /  6.4km/h 97% 0.00in /  0mm 9 W/m2
15:39 41 °F /  5 °C 40.3 °F /  4.6 °C 30.30in /  1026hPa NE 1.8mph /  2.9km/h 4mph /  6.4km/h 97% 0.00in /  0mm 7 W/m2
15:44 41 °F /  5 °C 40.3 °F /  4.6 °C 30.30in /  1026hPa NNE 3.3mph /  5.3km/h 7mph /  11.3km/h 97% 0.00in /  0mm 7 W/m2
15:49 41 °F /  5 °C 40.3 °F /  4.6 °C 30.30in /  1026hPa North 4.6mph /  7.4km/h 8mph /  12.9km/h 97% 0.00in /  0mm 5 W/m2
15:54 41.2 °F /  5.1 °C 40.3 °F /  4.6 °C 30.30in /  1026hPa NNE 3.4mph /  5.5km/h 6mph /  9.7km/h 96.6% 0.00in /  0mm 0 W/m2
15:58 41.2 °F /  5.1 °C 40.1 °F /  4.5 °C 30.30in /  1026hPa North 3.2mph /  5.1km/h 9mph /  14.5km/h 96% 0.00in /  0mm 0 W/m2
16:04 41.4 °F /  5.2 °C 40.3 °F /  4.6 °C 30.30in /  1026hPa NE 3.4mph /  5.5km/h 7mph /  11.3km/h 96% 0.00in /  0mm 0 W/m2
16:09 41.4 °F /  5.2 °C 40.3 °F /  4.6 °C 30.30in /  1026hPa NNE 1.7mph /  2.7km/h 8mph /  12.9km/h 96% 0.00in /  0mm 0 W/m2
16:14 41.4 °F /  5.2 °C 40.3 °F /  4.6 °C 30.30in /  1026hPa NNE 2.3mph /  3.7km/h 5mph /  8km/h 96% 0.00in /  0mm 0 W/m2
16:19 41.5 °F /  5.3 °C 40.4 °F /  4.7 °C 30.30in /  1026hPa NNE 2.4mph /  3.9km/h 5mph /  8km/h 96% 0.00in /  0mm 0 W/m2
16:24 41.5 °F /  5.3 °C 40.5 °F /  4.7 °C 30.30in /  1026hPa ENE 3.3mph /  5.3km/h 8mph /  12.9km/h 96% 0.00in /  0mm 0 W/m2
16:29 41.5 °F /  5.3 °C 40.5 °F /  4.7 °C 30.30in /  1026hPa East 0.5mph /  0.8km/h 5mph /  8km/h 96% 0.00in /  0mm 0 W/m2
16:34 41.5 °F /  5.3 °C 40.5 °F /  4.7 °C 30.30in /  1026hPa NNW 1.7mph /  2.7km/h 5mph /  8km/h 96% 0.00in /  0mm 0 W/m2
16:39 41.4 °F /  5.2 °C 40.4 °F /  4.7 °C 30.30in /  1026hPa NNW 0.9mph /  1.4km/h 4mph /  6.4km/h 96% 0.00in /  0mm 0 W/m2
16:44 41.4 °F /  5.2 °C 40.3 °F /  4.6 °C 30.30in /  1026hPa NNW 2.1mph /  3.4km/h 4mph /  6.4km/h 96% 0.00in /  0mm 0 W/m2
16:49 41.4 °F /  5.2 °C 40.3 °F /  4.6 °C 30.30in /  1026hPa NNW 0.8mph /  1.3km/h 3mph /  4.8km/h 96% 0.00in /  0mm 0 W/m2
16:54 41.4 °F /  5.2 °C 40.3 °F /  4.6 °C 30.30in /  1026hPa North 2.1mph /  3.4km/h 7mph /  11.3km/h 96% 0.00in /  0mm 0 W/m2
16:59 41.2 °F /  5.1 °C 40.1 °F /  4.5 °C 30.30in /  1026hPa NNW 1.3mph /  2.1km/h 4mph /  6.4km/h 96% 0.00in /  0mm 0 W/m2
17:04 41.2 °F /  5.1 °C 40.1 °F /  4.5 °C 30.31in /  1026.3hPa NNE 2.3mph /  3.7km/h 5mph /  8km/h 96% 0.00in /  0mm 0 W/m2
17:09 41.3 °F /  5.2 °C 40.2 °F /  4.6 °C 30.31in /  1026.3hPa NNE 1.7mph /  2.7km/h 5mph /  8km/h 96% 0.00in /  0mm 0 W/m2
17:14 41.3 °F /  5.2 °C 40.2 °F /  4.6 °C 30.31in /  1026.3hPa NE 1.8mph /  2.9km/h 6mph /  9.7km/h 96% 0.00in /  0mm 0 W/m2
17:19 41.2 °F /  5.1 °C 40.1 °F /  4.5 °C 30.31in /  1026.3hPa North 2.4mph /  3.9km/h 6mph /  9.7km/h 96% 0.00in /  0mm 0 W/m2
17:24 41.3 °F /  5.2 °C 40.2 °F /  4.6 °C 30.31in /  1026.3hPa NNE 1.7mph /  2.7km/h 4mph /  6.4km/h 96% 0.00in /  0mm 0 W/m2
17:29 41.2 °F /  5.1 °C 40.1 °F /  4.5 °C 30.31in /  1026.3hPa NNE 1.8mph /  2.9km/h 4mph /  6.4km/h 96% 0.00in /  0mm 0 W/m2
17:34 41.2 °F /  5.1 °C 40.1 °F /  4.5 °C 30.31in /  1026.3hPa NE 1.6mph /  2.6km/h 7mph /  11.3km/h 96% 0.00in /  0mm 0 W/m2
17:39 41.1 °F /  5.1 °C 40 °F /  4.4 °C 30.30in /  1026hPa NNE 2mph /  3.2km/h 7mph /  11.3km/h 96% 0.00in /  0mm 0 W/m2
17:44 40.9 °F /  4.9 °C 39.7 °F /  4.3 °C 30.31in /  1026.3hPa NE 2.9mph /  4.7km/h 8mph /  12.9km/h 95.2% 0.00in /  0mm 0 W/m2
17:49 40.8 °F /  4.9 °C 39.6 °F /  4.2 °C 30.30in /  1026hPa NNE 3.3mph /  5.3km/h 7mph /  11.3km/h 95% 0.00in /  0mm 0 W/m2
17:54 40.8 °F /  4.9 °C 39.6 °F /  4.2 °C 30.31in /  1026.3hPa NE 4mph /  6.4km/h 8mph /  12.9km/h 95% 0.00in /  0mm 0 W/m2
17:59 40.8 °F /  4.9 °C 39.6 °F /  4.2 °C 30.31in /  1026.3hPa NNE 4.2mph /  6.8km/h 9mph /  14.5km/h 95% 0.00in /  0mm 0 W/m2
18:04 40.8 °F /  4.9 °C 39.6 °F /  4.2 °C 30.31in /  1026.3hPa NNE 3.6mph /  5.8km/h 8mph /  12.9km/h 95% 0.00in /  0mm 0 W/m2
18:09 40.9 °F /  4.9 °C 39.7 °F /  4.3 °C 30.31in /  1026.3hPa NNE 3.6mph /  5.8km/h 9mph /  14.5km/h 95% 0.00in /  0mm 0 W/m2
18:14 41 °F /  5 °C 39.7 °F /  4.3 °C 30.31in /  1026.3hPa NNE 1.2mph /  1.9km/h 4mph /  6.4km/h 95% 0.00in /  0mm 0 W/m2
18:19 41 °F /  5 °C 39.7 °F /  4.3 °C 30.31in /  1026.3hPa NE 4.9mph /  7.9km/h 9mph /  14.5km/h 95% 0.00in /  0mm 0 W/m2
18:24 41 °F /  5 °C 39.7 °F /  4.3 °C 30.31in /  1026.3hPa NE 4.2mph /  6.8km/h 9mph /  14.5km/h 95% 0.00in /  0mm 0 W/m2
18:29 41 °F /  5 °C 39.7 °F /  4.3 °C 30.31in /  1026.3hPa NE 2.1mph /  3.4km/h 5mph /  8km/h 95% 0.00in /  0mm 0 W/m2
18:34 40.8 °F /  4.9 °C 39.6 °F /  4.2 °C 30.31in /  1026.3hPa North 1.3mph /  2.1km/h 5mph /  8km/h 95% 0.00in /  0mm 0 W/m2
18:38 41 °F /  5 °C 39.7 °F /  4.3 °C 30.31in /  1026.3hPa NNE 4mph /  6.4km/h 6mph /  9.7km/h 95% 0.00in /  0mm 0 W/m2
18:44 41 °F /  5 °C 39.7 °F /  4.3 °C 30.31in /  1026.3hPa NNE 3.5mph /  5.6km/h 8mph /  12.9km/h 95% 0.00in /  0mm 0 W/m2
18:49 41.2 °F /  5.1 °C 39.9 °F /  4.4 °C 30.31in /  1026.3hPa NNE 2.4mph /  3.9km/h 8mph /  12.9km/h 95% 0.00in /  0mm 0 W/m2
18:54 41.3 °F /  5.2 °C 40 °F /  4.4 °C 30.30in /  1026hPa NNE 3.7mph /  6km/h 11mph /  17.7km/h 95% 0.00in /  0mm 0 W/m2
18:59 41.4 °F /  5.2 °C 40.1 °F /  4.5 °C 30.30in /  1026hPa North 2.8mph /  4.5km/h 9mph /  14.5km/h 95% 0.00in /  0mm 0 W/m2
19:04 41.4 °F /  5.2 °C 40.1 °F /  4.5 °C 30.30in /  1026hPa NNE 5.1mph /  8.2km/h 9mph /  14.5km/h 95% 0.00in /  0mm 0 W/m2
19:09 41.2 °F /  5.1 °C 39.7 °F /  4.3 °C 30.30in /  1026hPa NNE 2.5mph /  4km/h 9mph /  14.5km/h 94.2% 0.00in /  0mm 0 W/m2
19:14 41.2 °F /  5.1 °C 39.6 °F /  4.2 °C 30.30in /  1026hPa NNE 4.9mph /  7.9km/h 13mph /  20.9km/h 94% 0.00in /  0mm 0 W/m2
19:19 41.2 °F /  5.1 °C 39.7 °F /  4.3 °C 30.30in /  1026hPa NNE 5mph /  8km/h 11mph /  17.7km/h 94.4% 0.00in /  0mm 0 W/m2
19:24 41.2 °F /  5.1 °C 39.7 °F /  4.3 °C 30.30in /  1026hPa ENE 3.3mph /  5.3km/h 7mph /  11.3km/h 94.4% 0.00in /  0mm 0 W/m2
19:29 41.2 °F /  5.1 °C 39.6 °F /  4.2 °C 30.30in /  1026hPa NE 6.1mph /  9.8km/h 9mph /  14.5km/h 94% 0.00in /  0mm 0 W/m2
19:34 41.2 °F /  5.1 °C 39.6 °F /  4.2 °C 30.30in /  1026hPa NNE 3.6mph /  5.8km/h 8mph /  12.9km/h 94% 0.00in /  0mm 0 W/m2
19:39 41.2 °F /  5.1 °C 39.6 °F /  4.2 °C 30.30in /  1026hPa NE 5mph /  8km/h 10mph /  16.1km/h 94% 0.00in /  0mm 0 W/m2
19:44 41.1 °F /  5.1 °C 39.5 °F /  4.2 °C 30.30in /  1026hPa NE 4.5mph /  7.2km/h 12mph /  19.3km/h 94% 0.00in /  0mm 0 W/m2
19:49 41.1 °F /  5.1 °C 39.5 °F /  4.2 °C 30.30in /  1026hPa North 3.4mph /  5.5km/h 7mph /  11.3km/h 94% 0.00in /  0mm 0 W/m2
19:54 41 °F /  5 °C 39.4 °F /  4.1 °C 30.30in /  1026hPa NE 4.6mph /  7.4km/h 8mph /  12.9km/h 94% 0.00in /  0mm 0 W/m2
19:59 41 °F /  5 °C 39.4 °F /  4.1 °C 30.30in /  1026hPa NNE 5.8mph /  9.3km/h 10mph /  16.1km/h 94% 0.00in /  0mm 0 W/m2
20:04 41 °F /  5 °C 39.4 °F /  4.1 °C 30.30in /  1026hPa NNE 5mph /  8km/h 13mph /  20.9km/h 94% 0.00in /  0mm 0 W/m2
20:09 40.8 °F /  4.9 °C 39.2 °F /  4 °C 30.30in /  1026hPa NNE 5.4mph /  8.7km/h 8mph /  12.9km/h 94% 0.00in /  0mm 0 W/m2
20:14 40.8 °F /  4.9 °C 39.2 °F /  4 °C 30.30in /  1026hPa NE 3.6mph /  5.8km/h 9mph /  14.5km/h 94% 0.00in /  0mm 0 W/m2
20:19 40.8 °F /  4.9 °C 39.2 °F /  4 °C 30.30in /  1026hPa NE 4.5mph /  7.2km/h 10mph /  16.1km/h 94% 0.00in /  0mm 0 W/m2
20:24 40.8 °F /  4.9 °C 39.2 °F /  4 °C 30.30in /  1026hPa NNE 4.1mph /  6.6km/h 9mph /  14.5km/h 94% 0.00in /  0mm 0 W/m2
20:29 40.8 °F /  4.9 °C 39.2 °F /  4 °C 30.30in /  1026hPa NNE 4.5mph /  7.2km/h 9mph /  14.5km/h 94% 0.00in /  0mm 0 W/m2
20:34 40.9 °F /  4.9 °C 39.3 °F /  4.1 °C 30.30in /  1026hPa NNE 2.2mph /  3.5km/h 6mph /  9.7km/h 94% 0.00in /  0mm 0 W/m2
20:39 40.8 °F /  4.9 °C 39.1 °F /  3.9 °C 30.30in /  1026hPa NE 3.1mph /  5km/h 9mph /  14.5km/h 93.6% 0.00in /  0mm 0 W/m2
20:44 40.8 °F /  4.9 °C 39 °F /  3.9 °C 30.30in /  1026hPa NNE 3.6mph /  5.8km/h 10mph /  16.1km/h 93% 0.00in /  0mm 0 W/m2
20:49 40.7 °F /  4.8 °C 38.9 °F /  3.8 °C 30.30in /  1026hPa NNE 2.9mph /  4.7km/h 7mph /  11.3km/h 93% 0.00in /  0mm 0 W/m2
20:54 40.6 °F /  4.8 °C 38.8 °F /  3.8 °C 30.30in /  1026hPa North 4.1mph /  6.6km/h 9mph /  14.5km/h 93% 0.00in /  0mm 0 W/m2
20:59 40.6 °F /  4.8 °C 38.8 °F /  3.8 °C 30.30in /  1026hPa NNE 3.7mph /  6km/h 9mph /  14.5km/h 93% 0.00in /  0mm 0 W/m2
21:04 40.5 °F /  4.7 °C 38.7 °F /  3.7 °C 30.30in /  1026hPa NE 5.6mph /  9km/h 12mph /  19.3km/h 93% 0.00in /  0mm 0 W/m2
21:09 40.5 °F /  4.7 °C 38.7 °F /  3.7 °C 30.30in /  1026hPa NNE 3.6mph /  5.8km/h 10mph /  16.1km/h 93% 0.00in /  0mm 0 W/m2
21:14 40.6 °F /  4.8 °C 38.8 °F /  3.8 °C 30.30in /  1026hPa NE 4.4mph /  7.1km/h 13mph /  20.9km/h 93% 0.00in /  0mm 0 W/m2
21:19 40.5 °F /  4.7 °C 38.7 °F /  3.7 °C 30.30in /  1026hPa NE 2.5mph /  4km/h 7mph /  11.3km/h 93% 0.00in /  0mm 0 W/m2
21:23 40.5 °F /  4.7 °C 38.7 °F /  3.7 °C 30.30in /  1026hPa NE 1.7mph /  2.7km/h 7mph /  11.3km/h 93% 0.00in /  0mm 0 W/m2
21:29 40.5 °F /  4.7 °C 38.7 °F /  3.7 °C 30.30in /  1026hPa ENE 2.9mph /  4.7km/h 9mph /  14.5km/h 93% 0.00in /  0mm 0 W/m2
21:34 40.5 °F /  4.7 °C 38.7 °F /  3.7 °C 30.30in /  1026hPa NE 2.7mph /  4.3km/h 8mph /  12.9km/h 93% 0.00in /  0mm 0 W/m2
21:39 40.3 °F /  4.6 °C 38.5 °F /  3.6 °C 30.30in /  1026hPa ENE 2.1mph /  3.4km/h 8mph /  12.9km/h 93% 0.00in /  0mm 0 W/m2
21:44 40.3 °F /  4.6 °C 38.5 °F /  3.6 °C 30.30in /  1026hPa ENE 1.7mph /  2.7km/h 7mph /  11.3km/h 93% 0.00in /  0mm 0 W/m2
21:49 40.1 °F /  4.5 °C 38.3 °F /  3.5 °C 30.30in /  1026hPa NNE 2.4mph /  3.9km/h 6mph /  9.7km/h 93% 0.00in /  0mm 0 W/m2
21:54 39.9 °F /  4.4 °C 38.1 °F /  3.4 °C 30.30in /  1026hPa NNE 1.6mph /  2.6km/h 4mph /  6.4km/h 93% 0.00in /  0mm 0 W/m2
21:59 39.9 °F /  4.4 °C 38.1 °F /  3.4 °C 30.30in /  1026hPa NNE 0.9mph /  1.4km/h 3mph /  4.8km/h 93% 0.00in /  0mm 0 W/m2
22:04 39.7 °F /  4.3 °C 37.9 °F /  3.3 °C 30.30in /  1026hPa NNE 0.4mph /  0.6km/h 2mph /  3.2km/h 93% 0.00in /  0mm 0 W/m2
22:09 39.6 °F /  4.2 °C 37.7 °F /  3.2 °C 30.29in /  1025.6hPa NNE 1mph /  1.6km/h 3mph /  4.8km/h 92.6% 0.00in /  0mm 0 W/m2
22:14 39.5 °F /  4.2 °C 37.3 °F /  2.9 °C 30.30in /  1026hPa NNE 0.9mph /  1.4km/h 2mph /  3.2km/h 92% 0.00in /  0mm 0 W/m2
22:19 39.4 °F /  4.1 °C 37.2 °F /  2.9 °C 30.30in /  1026hPa NNE 1.2mph /  1.9km/h 4mph /  6.4km/h 92% 0.00in /  0mm 0 W/m2
22:24 39.3 °F /  4.1 °C 37.1 °F /  2.8 °C 30.30in /  1026hPa NNE 0.2mph /  0.3km/h 2mph /  3.2km/h 92% 0.00in /  0mm 0 W/m2
22:29 39 °F /  3.9 °C 36.9 °F /  2.7 °C 30.29in /  1025.6hPa WSW 0.5mph /  0.8km/h 4mph /  6.4km/h 92% 0.00in /  0mm 0 W/m2
22:34 39 °F /  3.9 °C 36.9 °F /  2.7 °C 30.29in /  1025.6hPa WSW 1.2mph /  1.9km/h 2mph /  3.2km/h 92% 0.00in /  0mm 0 W/m2
22:39 39 °F /  3.9 °C 36.9 °F /  2.7 °C 30.29in /  1025.6hPa WSW 0.9mph /  1.4km/h 3mph /  4.8km/h 92% 0.00in /  0mm 0 W/m2
22:44 38.8 °F /  3.8 °C 36.7 °F /  2.6 °C 30.30in /  1026hPa NW 2.6mph /  4.2km/h 4mph /  6.4km/h 92% 0.00in /  0mm 0 W/m2
22:49 38.8 °F /  3.8 °C 36.7 °F /  2.6 °C 30.30in /  1026hPa NNE 0.8mph /  1.3km/h 4mph /  6.4km/h 92% 0.00in /  0mm 0 W/m2
22:54 38.9 °F /  3.8 °C 36.8 °F /  2.7 °C 30.30in /  1026hPa NNE 3.2mph /  5.1km/h 6mph /  9.7km/h 92% 0.00in /  0mm 0 W/m2
22:59 39 °F /  3.9 °C 36.9 °F /  2.7 °C 30.30in /  1026hPa NE 2.7mph /  4.3km/h 7mph /  11.3km/h 92% 0.00in /  0mm 0 W/m2
23:04 39.3 °F /  4.1 °C 37.2 °F /  2.9 °C 30.30in /  1026hPa NE 1mph /  1.6km/h 7mph /  11.3km/h 92% 0.00in /  0mm 0 W/m2
23:09 39.6 °F /  4.2 °C 37.6 °F /  3.1 °C 30.29in /  1025.6hPa NE 2.2mph /  3.5km/h 9mph /  14.5km/h 92.6% 0.00in /  0mm 0 W/m2
23:14 39.7 °F /  4.3 °C 37.8 °F /  3.2 °C 30.29in /  1025.6hPa NE 2.9mph /  4.7km/h 9mph /  14.5km/h 92.6% 0.00in /  0mm 0 W/m2
23:19 39.9 °F /  4.4 °C 37.8 °F /  3.2 °C 30.29in /  1025.6hPa NE 3.3mph /  5.3km/h 7mph /  11.3km/h 92% 0.00in /  0mm 0 W/m2
23:24 40.2 °F /  4.6 °C 38 °F /  3.3 °C 30.29in /  1025.6hPa North 4.4mph /  7.1km/h 9mph /  14.5km/h 92% 0.00in /  0mm 0 W/m2
23:29 40.3 °F /  4.6 °C 38.1 °F /  3.4 °C 30.29in /  1025.6hPa ENE 2.8mph /  4.5km/h 5mph /  8km/h 92% 0.00in /  0mm 0 W/m2
23:34 40.4 °F /  4.7 °C 38.2 °F /  3.4 °C 30.29in /  1025.6hPa North 3.8mph /  6.1km/h 7mph /  11.3km/h 92% 0.00in /  0mm 0 W/m2
23:39 40.5 °F /  4.7 °C 38.3 °F /  3.5 °C 30.29in /  1025.6hPa NE 3mph /  4.8km/h 9mph /  14.5km/h 92% 0.00in /  0mm 0 W/m2
23:44 40.5 °F /  4.7 °C 38.3 °F /  3.5 °C 30.29in /  1025.6hPa NNE 2.4mph /  3.9km/h 6mph /  9.7km/h 92% 0.00in /  0mm 0 W/m2
23:49 40.5 °F /  4.7 °C 38.3 °F /  3.5 °C 30.29in /  1025.6hPa NE 1.9mph /  3.1km/h 8mph /  12.9km/h 92% 0.00in /  0mm 0 W/m2
23:54 40.5 °F /  4.7 °C 38.3 °F /  3.5 °C 30.29in /  1025.6hPa NNE 2.2mph /  3.5km/h 4mph /  6.4km/h 92% 0.00in /  0mm 0 W/m2
23:59 40.5 °F /  4.7 °C 38.3 °F /  3.5 °C 30.29in /  1025.6hPa North 3mph /  4.8km/h 7mph /  11.3km/h 91.8% 0.00in /  0mm 0 W/m2
Bath Spa Weather
Compliments of Weather Underground - 2 mb